sensor_id;sensor_type;location;lat;lon;timestamp;temperature;humidity
15288;DHT22;7745;48.708;9.026;2023-06-26T00:01:57;19.00;99.90
15288;DHT22;7745;48.708;9.026;2023-06-26T00:04:24;18.90;99.90
15288;DHT22;7745;48.708;9.026;2023-06-26T00:06:51;18.90;99.90
15288;DHT22;7745;48.708;9.026;2023-06-26T00:09:19;18.90;99.90
15288;DHT22;7745;48.708;9.026;2023-06-26T00:11:45;18.80;99.90
15288;DHT22;7745;48.708;9.026;2023-06-26T00:14:12;18.70;99.90
15288;DHT22;7745;48.708;9.026;2023-06-26T00:16:39;18.70;99.90
15288;DHT22;7745;48.708;9.026;2023-06-26T00:19:08;18.70;99.90
15288;DHT22;7745;48.708;9.026;2023-06-26T00:21:34;18.60;99.90
15288;DHT22;7745;48.708;9.026;2023-06-26T00:24:01;18.50;99.90
15288;DHT22;7745;48.708;9.026;2023-06-26T00:26:29;18.60;99.90
15288;DHT22;7745;48.708;9.026;2023-06-26T00:28:56;18.60;99.90
15288;DHT22;7745;48.708;9.026;2023-06-26T00:31:23;18.60;99.90
15288;DHT22;7745;48.708;9.026;2023-06-26T00:33:49;18.50;99.90
15288;DHT22;7745;48.708;9.026;2023-06-26T00:36:16;18.50;99.90
15288;DHT22;7745;48.708;9.026;2023-06-26T00:38:43;18.60;99.90
15288;DHT22;7745;48.708;9.026;2023-06-26T00:41:10;18.40;99.90
15288;DHT22;7745;48.708;9.026;2023-06-26T00:43:39;18.50;99.90
15288;DHT22;7745;48.708;9.026;2023-06-26T00:46:09;18.40;99.90
15288;DHT22;7745;48.708;9.026;2023-06-26T00:48:36;18.30;99.90
15288;DHT22;7745;48.708;9.026;2023-06-26T00:51:04;18.30;99.90
15288;DHT22;7745;48.708;9.026;2023-06-26T00:53:31;18.30;99.90
15288;DHT22;7745;48.708;9.026;2023-06-26T00:55:57;18.30;99.90
15288;DHT22;7745;48.708;9.026;2023-06-26T00:58:25;18.20;99.90
15288;DHT22;7745;48.708;9.026;2023-06-26T01:00:54;18.20;99.90
15288;DHT22;7745;48.708;9.026;2023-06-26T01:03:22;18.10;99.90
15288;DHT22;7745;48.708;9.026;2023-06-26T01:05:50;18.00;99.90
15288;DHT22;7745;48.708;9.026;2023-06-26T01:08:18;18.00;99.90
15288;DHT22;7745;48.708;9.026;2023-06-26T01:10:46;18.00;99.90
15288;DHT22;7745;48.708;9.026;2023-06-26T01:13:14;17.90;99.90
15288;DHT22;7745;48.708;9.026;2023-06-26T01:15:41;17.90;99.90
15288;DHT22;7745;48.708;9.026;2023-06-26T01:18:09;17.90;99.90
15288;DHT22;7745;48.708;9.026;2023-06-26T01:20:38;17.90;99.90
15288;DHT22;7745;48.708;9.026;2023-06-26T01:23:14;17.90;99.90
15288;DHT22;7745;48.708;9.026;2023-06-26T01:25:53;17.90;99.90
15288;DHT22;7745;48.708;9.026;2023-06-26T01:28:24;17.90;99.90
15288;DHT22;7745;48.708;9.026;2023-06-26T01:30:51;17.90;99.90
15288;DHT22;7745;48.708;9.026;2023-06-26T01:33:18;17.90;99.90
15288;DHT22;7745;48.708;9.026;2023-06-26T01:35:45;17.80;99.90
15288;DHT22;7745;48.708;9.026;2023-06-26T01:38:15;17.70;99.90
15288;DHT22;7745;48.708;9.026;2023-06-26T01:40:42;17.70;99.90
15288;DHT22;7745;48.708;9.026;2023-06-26T01:43:16;17.90;99.90
15288;DHT22;7745;48.708;9.026;2023-06-26T01:45:49;17.70;99.90
15288;DHT22;7745;48.708;9.026;2023-06-26T01:51:01;17.60;99.90
15288;DHT22;7745;48.708;9.026;2023-06-26T01:53:34;17.70;99.90
15288;DHT22;7745;48.708;9.026;2023-06-26T01:56:07;17.60;99.90
15288;DHT22;7745;48.708;9.026;2023-06-26T01:58:35;17.60;99.90
15288;DHT22;7745;48.708;9.026;2023-06-26T02:01:06;17.70;99.90
15288;DHT22;7745;48.708;9.026;2023-06-26T02:03:33;17.50;99.90
15288;DHT22;7745;48.708;9.026;2023-06-26T02:06:00;17.60;99.90
15288;DHT22;7745;48.708;9.026;2023-06-26T02:08:26;17.60;99.90
15288;DHT22;7745;48.708;9.026;2023-06-26T02:10:53;17.50;99.90
15288;DHT22;7745;48.708;9.026;2023-06-26T02:13:20;17.50;99.90
15288;DHT22;7745;48.708;9.026;2023-06-26T02:15:47;17.40;99.90
15288;DHT22;7745;48.708;9.026;2023-06-26T02:18:15;17.40;99.90
15288;DHT22;7745;48.708;9.026;2023-06-26T02:20:43;17.40;99.90
15288;DHT22;7745;48.708;9.026;2023-06-26T02:23:10;17.40;99.90
15288;DHT22;7745;48.708;9.026;2023-06-26T02:25:38;17.30;99.90
15288;DHT22;7745;48.708;9.026;2023-06-26T02:28:04;17.30;99.90
15288;DHT22;7745;48.708;9.026;2023-06-26T02:30:31;17.30;99.90
15288;DHT22;7745;48.708;9.026;2023-06-26T02:32:58;17.30;99.90
15288;DHT22;7745;48.708;9.026;2023-06-26T02:35:26;17.30;99.90
15288;DHT22;7745;48.708;9.026;2023-06-26T02:37:53;17.30;99.90
15288;DHT22;7745;48.708;9.026;2023-06-26T02:40:19;17.30;99.90
15288;DHT22;7745;48.708;9.026;2023-06-26T02:42:46;17.20;99.90
15288;DHT22;7745;48.708;9.026;2023-06-26T02:45:13;17.30;99.90
15288;DHT22;7745;48.708;9.026;2023-06-26T02:47:40;17.20;99.90
15288;DHT22;7745;48.708;9.026;2023-06-26T02:50:07;17.20;99.90
15288;DHT22;7745;48.708;9.026;2023-06-26T02:52:35;17.10;99.90
15288;DHT22;7745;48.708;9.026;2023-06-26T02:55:02;17.10;99.90
15288;DHT22;7745;48.708;9.026;2023-06-26T02:57:30;17.00;99.90
15288;DHT22;7745;48.708;9.026;2023-06-26T02:59:57;17.00;99.90
15288;DHT22;7745;48.708;9.026;2023-06-26T03:02:23;16.90;99.90
15288;DHT22;7745;48.708;9.026;2023-06-26T03:04:50;16.90;99.90
15288;DHT22;7745;48.708;9.026;2023-06-26T03:07:18;16.90;99.90
15288;DHT22;7745;48.708;9.026;2023-06-26T03:09:46;16.80;99.90
15288;DHT22;7745;48.708;9.026;2023-06-26T03:12:13;16.80;99.90
15288;DHT22;7745;48.708;9.026;2023-06-26T03:14:39;16.80;99.90
15288;DHT22;7745;48.708;9.026;2023-06-26T03:17:06;16.80;99.90
15288;DHT22;7745;48.708;9.026;2023-06-26T03:19:33;16.80;99.90
15288;DHT22;7745;48.708;9.026;2023-06-26T03:22:00;16.80;99.90
15288;DHT22;7745;48.708;9.026;2023-06-26T03:24:26;16.80;99.90
15288;DHT22;7745;48.708;9.026;2023-06-26T03:26:54;16.80;99.90
15288;DHT22;7745;48.708;9.026;2023-06-26T03:29:21;16.80;99.90
15288;DHT22;7745;48.708;9.026;2023-06-26T03:31:48;16.80;99.90
15288;DHT22;7745;48.708;9.026;2023-06-26T03:34:15;16.80;99.90
15288;DHT22;7745;48.708;9.026;2023-06-26T03:36:41;16.80;99.90
15288;DHT22;7745;48.708;9.026;2023-06-26T03:39:08;16.70;99.90
15288;DHT22;7745;48.708;9.026;2023-06-26T03:41:35;16.80;99.90
15288;DHT22;7745;48.708;9.026;2023-06-26T03:44:03;16.80;99.90
15288;DHT22;7745;48.708;9.026;2023-06-26T03:46:30;16.70;99.90
15288;DHT22;7745;48.708;9.026;2023-06-26T03:48:57;16.70;99.90
15288;DHT22;7745;48.708;9.026;2023-06-26T03:51:23;16.70;99.90
15288;DHT22;7745;48.708;9.026;2023-06-26T03:53:50;16.70;99.90
15288;DHT22;7745;48.708;9.026;2023-06-26T03:56:17;16.70;99.90
15288;DHT22;7745;48.708;9.026;2023-06-26T03:58:44;16.70;99.90
15288;DHT22;7745;48.708;9.026;2023-06-26T04:01:12;16.70;99.90
15288;DHT22;7745;48.708;9.026;2023-06-26T04:03:39;16.70;99.90
15288;DHT22;7745;48.708;9.026;2023-06-26T04:06:06;16.70;99.90
15288;DHT22;7745;48.708;9.026;2023-06-26T04:08:32;16.70;99.90
15288;DHT22;7745;48.708;9.026;2023-06-26T04:10:59;16.70;99.90
15288;DHT22;7745;48.708;9.026;2023-06-26T04:13:26;16.70;99.90
15288;DHT22;7745;48.708;9.026;2023-06-26T04:15:53;16.70;99.90
15288;DHT22;7745;48.708;9.026;2023-06-26T04:18:21;16.80;99.90
15288;DHT22;7745;48.708;9.026;2023-06-26T04:21:05;16.80;99.90
15288;DHT22;7745;48.708;9.026;2023-06-26T04:23:32;16.80;99.90
15288;DHT22;7745;48.708;9.026;2023-06-26T04:25:59;16.80;99.90
15288;DHT22;7745;48.708;9.026;2023-06-26T04:28:27;16.90;99.90
15288;DHT22;7745;48.708;9.026;2023-06-26T04:30:54;16.90;99.90
15288;DHT22;7745;48.708;9.026;2023-06-26T04:33:22;17.00;99.90
15288;DHT22;7745;48.708;9.026;2023-06-26T04:35:49;17.00;99.90
15288;DHT22;7745;48.708;9.026;2023-06-26T04:38:16;17.10;99.90
15288;DHT22;7745;48.708;9.026;2023-06-26T04:40:43;17.30;99.90
15288;DHT22;7745;48.708;9.026;2023-06-26T04:43:10;17.30;99.90
15288;DHT22;7745;48.708;9.026;2023-06-26T04:45:37;17.50;99.90
15288;DHT22;7745;48.708;9.026;2023-06-26T04:48:04;17.80;99.90
15288;DHT22;7745;48.708;9.026;2023-06-26T04:50:33;17.90;99.90
15288;DHT22;7745;48.708;9.026;2023-06-26T04:53:00;18.20;99.90
15288;DHT22;7745;48.708;9.026;2023-06-26T04:55:27;18.40;99.90
15288;DHT22;7745;48.708;9.026;2023-06-26T04:57:54;18.70;99.90
15288;DHT22;7745;48.708;9.026;2023-06-26T05:00:20;18.90;99.90
15288;DHT22;7745;48.708;9.026;2023-06-26T05:02:48;19.00;99.90
15288;DHT22;7745;48.708;9.026;2023-06-26T05:05:14;19.10;99.90
15288;DHT22;7745;48.708;9.026;2023-06-26T05:07:42;19.30;99.90
15288;DHT22;7745;48.708;9.026;2023-06-26T05:10:10;19.40;99.90
15288;DHT22;7745;48.708;9.026;2023-06-26T05:12:36;19.60;99.90
15288;DHT22;7745;48.708;9.026;2023-06-26T05:15:04;19.90;99.90
15288;DHT22;7745;48.708;9.026;2023-06-26T05:17:31;20.10;99.90
15288;DHT22;7745;48.708;9.026;2023-06-26T05:19:57;20.30;99.90
15288;DHT22;7745;48.708;9.026;2023-06-26T05:22:25;20.50;99.90
15288;DHT22;7745;48.708;9.026;2023-06-26T05:24:55;20.60;99.90
15288;DHT22;7745;48.708;9.026;2023-06-26T05:27:24;20.80;99.90
15288;DHT22;7745;48.708;9.026;2023-06-26T05:29:51;21.00;99.90
15288;DHT22;7745;48.708;9.026;2023-06-26T05:32:18;21.10;99.90
15288;DHT22;7745;48.708;9.026;2023-06-26T05:34:47;21.30;99.90
15288;DHT22;7745;48.708;9.026;2023-06-26T05:37:18;21.40;99.90
15288;DHT22;7745;48.708;9.026;2023-06-26T05:39:47;21.50;99.90
15288;DHT22;7745;48.708;9.026;2023-06-26T05:42:16;21.60;99.90
15288;DHT22;7745;48.708;9.026;2023-06-26T05:44:43;21.80;99.90
15288;DHT22;7745;48.708;9.026;2023-06-26T05:47:10;21.90;99.90
15288;DHT22;7745;48.708;9.026;2023-06-26T05:49:36;22.10;99.90
15288;DHT22;7745;48.708;9.026;2023-06-26T05:52:04;22.30;99.90
15288;DHT22;7745;48.708;9.026;2023-06-26T05:54:31;22.40;99.90
15288;DHT22;7745;48.708;9.026;2023-06-26T05:56:58;22.40;99.90
15288;DHT22;7745;48.708;9.026;2023-06-26T05:59:27;22.50;99.90
15288;DHT22;7745;48.708;9.026;2023-06-26T06:01:56;22.70;99.90
15288;DHT22;7745;48.708;9.026;2023-06-26T06:04:23;23.00;99.90
15288;DHT22;7745;48.708;9.026;2023-06-26T06:06:51;23.10;99.90
15288;DHT22;7745;48.708;9.026;2023-06-26T06:09:18;23.30;99.90
15288;DHT22;7745;48.708;9.026;2023-06-26T06:11:45;23.30;99.90
15288;DHT22;7745;48.708;9.026;2023-06-26T06:14:11;23.50;99.90
15288;DHT22;7745;48.708;9.026;2023-06-26T06:16:40;23.70;99.90
15288;DHT22;7745;48.708;9.026;2023-06-26T06:19:06;23.80;99.90
15288;DHT22;7745;48.708;9.026;2023-06-26T06:21:36;24.00;99.90
15288;DHT22;7745;48.708;9.026;2023-06-26T06:24:03;24.00;99.90
15288;DHT22;7745;48.708;9.026;2023-06-26T06:26:30;24.10;99.90
15288;DHT22;7745;48.708;9.026;2023-06-26T06:28:57;24.30;99.90
15288;DHT22;7745;48.708;9.026;2023-06-26T06:31:23;24.30;99.90
15288;DHT22;7745;48.708;9.026;2023-06-26T06:33:52;24.40;99.90
15288;DHT22;7745;48.708;9.026;2023-06-26T06:36:18;24.50;99.90
15288;DHT22;7745;48.708;9.026;2023-06-26T06:38:45;24.60;99.90
15288;DHT22;7745;48.708;9.026;2023-06-26T06:41:12;24.50;99.90
15288;DHT22;7745;48.708;9.026;2023-06-26T06:43:39;24.60;99.90
15288;DHT22;7745;48.708;9.026;2023-06-26T06:46:06;24.60;99.90
15288;DHT22;7745;48.708;9.026;2023-06-26T06:48:32;24.80;99.90
15288;DHT22;7745;48.708;9.026;2023-06-26T06:51:00;24.90;99.90
15288;DHT22;7745;48.708;9.026;2023-06-26T06:53:27;25.00;99.90
15288;DHT22;7745;48.708;9.026;2023-06-26T06:55:54;25.10;99.90
15288;DHT22;7745;48.708;9.026;2023-06-26T06:58:21;25.30;99.90
15288;DHT22;7745;48.708;9.026;2023-06-26T07:00:48;25.40;99.90
15288;DHT22;7745;48.708;9.026;2023-06-26T07:03:17;25.50;99.90
15288;DHT22;7745;48.708;9.026;2023-06-26T07:05:44;25.60;99.90
15288;DHT22;7745;48.708;9.026;2023-06-26T07:08:12;25.70;99.90
15288;DHT22;7745;48.708;9.026;2023-06-26T07:10:39;25.80;99.90
15288;DHT22;7745;48.708;9.026;2023-06-26T07:13:06;26.10;99.90
15288;DHT22;7745;48.708;9.026;2023-06-26T07:15:33;26.20;99.90
15288;DHT22;7745;48.708;9.026;2023-06-26T07:18:00;26.30;99.90
15288;DHT22;7745;48.708;9.026;2023-06-26T07:20:27;26.40;99.90
15288;DHT22;7745;48.708;9.026;2023-06-26T07:22:54;26.60;99.90
15288;DHT22;7745;48.708;9.026;2023-06-26T07:25:22;26.70;99.90
15288;DHT22;7745;48.708;9.026;2023-06-26T07:27:48;26.80;99.90
15288;DHT22;7745;48.708;9.026;2023-06-26T07:30:15;26.80;99.90
15288;DHT22;7745;48.708;9.026;2023-06-26T07:32:44;26.90;99.90
15288;DHT22;7745;48.708;9.026;2023-06-26T07:35:11;27.10;99.90
15288;DHT22;7745;48.708;9.026;2023-06-26T07:37:38;27.10;99.90
15288;DHT22;7745;48.708;9.026;2023-06-26T07:40:07;27.30;99.90
15288;DHT22;7745;48.708;9.026;2023-06-26T07:42:36;27.40;99.90
15288;DHT22;7745;48.708;9.026;2023-06-26T07:45:03;27.50;99.90
15288;DHT22;7745;48.708;9.026;2023-06-26T07:47:35;27.50;99.90
15288;DHT22;7745;48.708;9.026;2023-06-26T07:50:02;27.70;99.90
15288;DHT22;7745;48.708;9.026;2023-06-26T07:52:29;27.80;99.90
15288;DHT22;7745;48.708;9.026;2023-06-26T07:54:56;27.90;99.90
15288;DHT22;7745;48.708;9.026;2023-06-26T07:57:23;28.00;99.90
15288;DHT22;7745;48.708;9.026;2023-06-26T07:59:51;28.10;99.90
15288;DHT22;7745;48.708;9.026;2023-06-26T08:02:18;28.10;99.90
15288;DHT22;7745;48.708;9.026;2023-06-26T08:04:45;28.20;99.90
15288;DHT22;7745;48.708;9.026;2023-06-26T08:07:11;28.30;99.90
15288;DHT22;7745;48.708;9.026;2023-06-26T08:09:39;28.40;99.90
15288;DHT22;7745;48.708;9.026;2023-06-26T08:12:06;28.40;99.90
15288;DHT22;7745;48.708;9.026;2023-06-26T08:14:33;28.60;99.90
15288;DHT22;7745;48.708;9.026;2023-06-26T08:17:01;28.60;99.90
15288;DHT22;7745;48.708;9.026;2023-06-26T08:19:28;28.70;99.90
15288;DHT22;7745;48.708;9.026;2023-06-26T08:21:55;28.80;99.90
15288;DHT22;7745;48.708;9.026;2023-06-26T08:24:21;28.80;99.90
15288;DHT22;7745;48.708;9.026;2023-06-26T08:26:48;28.90;99.90
15288;DHT22;7745;48.708;9.026;2023-06-26T08:29:15;28.90;99.90
15288;DHT22;7745;48.708;9.026;2023-06-26T08:31:42;28.90;99.90
15288;DHT22;7745;48.708;9.026;2023-06-26T08:34:11;29.00;99.90
15288;DHT22;7745;48.708;9.026;2023-06-26T08:36:38;29.10;99.90
15288;DHT22;7745;48.708;9.026;2023-06-26T08:39:05;29.10;99.90
15288;DHT22;7745;48.708;9.026;2023-06-26T08:41:34;29.30;99.90
15288;DHT22;7745;48.708;9.026;2023-06-26T08:44:01;29.20;99.90
15288;DHT22;7745;48.708;9.026;2023-06-26T08:46:29;29.30;99.90
15288;DHT22;7745;48.708;9.026;2023-06-26T08:48:56;29.20;99.90
15288;DHT22;7745;48.708;9.026;2023-06-26T08:51:28;29.20;99.90
15288;DHT22;7745;48.708;9.026;2023-06-26T08:53:56;29.30;99.90
15288;DHT22;7745;48.708;9.026;2023-06-26T08:56:25;29.30;99.90
15288;DHT22;7745;48.708;9.026;2023-06-26T08:58:53;29.40;99.90
15288;DHT22;7745;48.708;9.026;2023-06-26T09:01:20;29.40;99.90
15288;DHT22;7745;48.708;9.026;2023-06-26T09:03:47;29.50;99.90
15288;DHT22;7745;48.708;9.026;2023-06-26T09:06:14;29.50;99.90
15288;DHT22;7745;48.708;9.026;2023-06-26T09:08:42;29.50;99.90
15288;DHT22;7745;48.708;9.026;2023-06-26T09:11:09;29.70;99.90
15288;DHT22;7745;48.708;9.026;2023-06-26T09:13:36;29.80;99.90
15288;DHT22;7745;48.708;9.026;2023-06-26T09:16:06;30.00;99.90
15288;DHT22;7745;48.708;9.026;2023-06-26T09:18:33;30.20;99.90
15288;DHT22;7745;48.708;9.026;2023-06-26T09:21:01;30.40;99.90
15288;DHT22;7745;48.708;9.026;2023-06-26T09:23:32;30.40;99.90
15288;DHT22;7745;48.708;9.026;2023-06-26T09:26:02;30.50;99.90
15288;DHT22;7745;48.708;9.026;2023-06-26T09:28:30;30.60;99.90
15288;DHT22;7745;48.708;9.026;2023-06-26T09:31:00;30.70;99.90
15288;DHT22;7745;48.708;9.026;2023-06-26T09:33:33;30.90;99.90
15288;DHT22;7745;48.708;9.026;2023-06-26T09:36:04;31.10;99.90
15288;DHT22;7745;48.708;9.026;2023-06-26T09:38:31;31.30;99.90
15288;DHT22;7745;48.708;9.026;2023-06-26T09:40:58;31.20;99.90
15288;DHT22;7745;48.708;9.026;2023-06-26T09:43:26;31.00;99.90
15288;DHT22;7745;48.708;9.026;2023-06-26T09:45:53;30.90;99.90
15288;DHT22;7745;48.708;9.026;2023-06-26T09:48:21;30.70;99.90
15288;DHT22;7745;48.708;9.026;2023-06-26T09:50:49;30.60;99.90
15288;DHT22;7745;48.708;9.026;2023-06-26T09:53:15;30.30;99.90
15288;DHT22;7745;48.708;9.026;2023-06-26T09:55:44;30.20;99.90
15288;DHT22;7745;48.708;9.026;2023-06-26T09:58:12;30.30;99.90
15288;DHT22;7745;48.708;9.026;2023-06-26T10:00:42;30.50;99.90
15288;DHT22;7745;48.708;9.026;2023-06-26T10:03:10;30.70;99.90
15288;DHT22;7745;48.708;9.026;2023-06-26T10:05:38;30.90;99.90
15288;DHT22;7745;48.708;9.026;2023-06-26T10:08:05;30.90;99.90
15288;DHT22;7745;48.708;9.026;2023-06-26T10:10:33;30.70;99.90
15288;DHT22;7745;48.708;9.026;2023-06-26T10:13:06;30.70;99.90
15288;DHT22;7745;48.708;9.026;2023-06-26T10:15:35;30.90;99.90
15288;DHT22;7745;48.708;9.026;2023-06-26T10:18:05;30.70;99.90
15288;DHT22;7745;48.708;9.026;2023-06-26T10:20:32;30.60;99.90
15288;DHT22;7745;48.708;9.026;2023-06-26T10:23:00;30.60;99.90
15288;DHT22;7745;48.708;9.026;2023-06-26T10:25:29;30.70;99.90
15288;DHT22;7745;48.708;9.026;2023-06-26T10:27:59;30.90;99.90
15288;DHT22;7745;48.708;9.026;2023-06-26T10:30:28;30.90;99.90
15288;DHT22;7745;48.708;9.026;2023-06-26T10:32:57;31.00;99.90
15288;DHT22;7745;48.708;9.026;2023-06-26T10:35:25;31.00;99.90
15288;DHT22;7745;48.708;9.026;2023-06-26T10:38:00;30.90;99.90
15288;DHT22;7745;48.708;9.026;2023-06-26T10:40:28;30.70;99.90
15288;DHT22;7745;48.708;9.026;2023-06-26T10:43:07;30.50;99.90
15288;DHT22;7745;48.708;9.026;2023-06-26T10:45:35;30.40;99.90
15288;DHT22;7745;48.708;9.026;2023-06-26T10:48:02;30.30;99.90
15288;DHT22;7745;48.708;9.026;2023-06-26T10:50:32;30.30;99.90
15288;DHT22;7745;48.708;9.026;2023-06-26T10:53:11;30.10;99.90
15288;DHT22;7745;48.708;9.026;2023-06-26T10:55:42;30.10;99.90
15288;DHT22;7745;48.708;9.026;2023-06-26T10:58:27;30.20;99.90
15288;DHT22;7745;48.708;9.026;2023-06-26T11:01:22;30.10;99.90
15288;DHT22;7745;48.708;9.026;2023-06-26T11:04:00;30.10;99.90
15288;DHT22;7745;48.708;9.026;2023-06-26T11:06:30;29.90;99.90
15288;DHT22;7745;48.708;9.026;2023-06-26T11:09:01;29.80;99.90
15288;DHT22;7745;48.708;9.026;2023-06-26T11:11:58;29.70;99.90
15288;DHT22;7745;48.708;9.026;2023-06-26T11:14:32;29.50;99.90
15288;DHT22;7745;48.708;9.026;2023-06-26T11:17:01;29.40;99.90
15288;DHT22;7745;48.708;9.026;2023-06-26T11:19:28;29.40;99.90
15288;DHT22;7745;48.708;9.026;2023-06-26T11:22:05;29.50;99.90
15288;DHT22;7745;48.708;9.026;2023-06-26T11:24:33;29.50;99.90
15288;DHT22;7745;48.708;9.026;2023-06-26T11:27:01;29.50;99.90
15288;DHT22;7745;48.708;9.026;2023-06-26T11:29:29;29.50;99.90
15288;DHT22;7745;48.708;9.026;2023-06-26T11:32:01;29.50;99.90
15288;DHT22;7745;48.708;9.026;2023-06-26T11:34:32;29.40;99.90
15288;DHT22;7745;48.708;9.026;2023-06-26T11:36:59;29.40;99.90
15288;DHT22;7745;48.708;9.026;2023-06-26T11:39:29;29.50;99.90
15288;DHT22;7745;48.708;9.026;2023-06-26T11:41:56;29.70;99.90
15288;DHT22;7745;48.708;9.026;2023-06-26T11:44:24;29.90;99.90
15288;DHT22;7745;48.708;9.026;2023-06-26T11:46:54;29.80;99.90
15288;DHT22;7745;48.708;9.026;2023-06-26T11:49:22;29.80;99.90
15288;DHT22;7745;48.708;9.026;2023-06-26T11:51:51;29.90;99.90
15288;DHT22;7745;48.708;9.026;2023-06-26T11:54:24;29.90;99.90
15288;DHT22;7745;48.708;9.026;2023-06-26T11:56:54;30.10;99.90
15288;DHT22;7745;48.708;9.026;2023-06-26T11:59:22;30.30;99.90
15288;DHT22;7745;48.708;9.026;2023-06-26T12:01:51;30.30;99.90
15288;DHT22;7745;48.708;9.026;2023-06-26T12:04:20;30.30;99.90
15288;DHT22;7745;48.708;9.026;2023-06-26T12:06:48;30.50;99.90
15288;DHT22;7745;48.708;9.026;2023-06-26T12:09:18;30.50;99.90
15288;DHT22;7745;48.708;9.026;2023-06-26T12:11:47;30.60;99.90
15288;DHT22;7745;48.708;9.026;2023-06-26T12:14:17;30.50;99.90
15288;DHT22;7745;48.708;9.026;2023-06-26T12:16:44;30.40;99.90
15288;DHT22;7745;48.708;9.026;2023-06-26T12:19:12;30.40;99.90
15288;DHT22;7745;48.708;9.026;2023-06-26T12:21:49;30.30;99.90
15288;DHT22;7745;48.708;9.026;2023-06-26T12:24:19;30.10;99.90
15288;DHT22;7745;48.708;9.026;2023-06-26T12:26:48;30.00;99.90
15288;DHT22;7745;48.708;9.026;2023-06-26T12:29:19;30.00;99.90
15288;DHT22;7745;48.708;9.026;2023-06-26T12:31:49;29.90;99.90
15288;DHT22;7745;48.708;9.026;2023-06-26T12:34:18;29.70;99.90
15288;DHT22;7745;48.708;9.026;2023-06-26T12:36:47;29.70;99.90
15288;DHT22;7745;48.708;9.026;2023-06-26T12:39:16;29.60;99.90
15288;DHT22;7745;48.708;9.026;2023-06-26T12:41:46;29.60;99.90
15288;DHT22;7745;48.708;9.026;2023-06-26T12:44:21;29.70;99.90
15288;DHT22;7745;48.708;9.026;2023-06-26T12:46:49;29.70;99.90
15288;DHT22;7745;48.708;9.026;2023-06-26T12:49:17;29.80;99.90
15288;DHT22;7745;48.708;9.026;2023-06-26T12:51:45;29.70;99.90
15288;DHT22;7745;48.708;9.026;2023-06-26T12:54:12;29.80;99.90
15288;DHT22;7745;48.708;9.026;2023-06-26T12:56:38;29.80;99.90
15288;DHT22;7745;48.708;9.026;2023-06-26T12:59:05;29.80;99.90
15288;DHT22;7745;48.708;9.026;2023-06-26T13:01:33;29.80;99.90
15288;DHT22;7745;48.708;9.026;2023-06-26T13:04:00;29.70;99.90
15288;DHT22;7745;48.708;9.026;2023-06-26T13:06:27;29.90;99.90
15288;DHT22;7745;48.708;9.026;2023-06-26T13:08:54;29.90;99.90
15288;DHT22;7745;48.708;9.026;2023-06-26T13:11:21;29.90;99.90
15288;DHT22;7745;48.708;9.026;2023-06-26T13:13:48;30.00;99.90
15288;DHT22;7745;48.708;9.026;2023-06-26T13:16:15;30.00;99.90
15288;DHT22;7745;48.708;9.026;2023-06-26T13:18:43;30.00;99.90
15288;DHT22;7745;48.708;9.026;2023-06-26T13:21:09;29.90;99.90
15288;DHT22;7745;48.708;9.026;2023-06-26T13:23:36;29.90;99.90
15288;DHT22;7745;48.708;9.026;2023-06-26T13:26:04;29.80;99.90
15288;DHT22;7745;48.708;9.026;2023-06-26T13:28:31;29.90;99.90
15288;DHT22;7745;48.708;9.026;2023-06-26T13:30:58;29.90;99.90
15288;DHT22;7745;48.708;9.026;2023-06-26T13:33:25;29.80;99.90
15288;DHT22;7745;48.708;9.026;2023-06-26T13:35:53;29.70;99.90
15288;DHT22;7745;48.708;9.026;2023-06-26T13:38:20;29.50;99.90
15288;DHT22;7745;48.708;9.026;2023-06-26T13:40:50;29.50;99.90
15288;DHT22;7745;48.708;9.026;2023-06-26T13:43:17;29.40;99.90
15288;DHT22;7745;48.708;9.026;2023-06-26T13:45:43;29.50;99.90
15288;DHT22;7745;48.708;9.026;2023-06-26T13:48:10;29.40;99.90
15288;DHT22;7745;48.708;9.026;2023-06-26T13:50:37;29.40;99.90
15288;DHT22;7745;48.708;9.026;2023-06-26T13:53:05;29.40;99.90
15288;DHT22;7745;48.708;9.026;2023-06-26T13:55:32;29.40;99.90
15288;DHT22;7745;48.708;9.026;2023-06-26T13:57:59;29.50;99.90
15288;DHT22;7745;48.708;9.026;2023-06-26T14:00:27;29.50;99.90
15288;DHT22;7745;48.708;9.026;2023-06-26T14:02:54;29.50;99.90
15288;DHT22;7745;48.708;9.026;2023-06-26T14:05:21;29.40;99.90
15288;DHT22;7745;48.708;9.026;2023-06-26T14:07:48;29.40;99.90
15288;DHT22;7745;48.708;9.026;2023-06-26T14:10:16;29.40;99.90
15288;DHT22;7745;48.708;9.026;2023-06-26T14:12:43;29.50;99.90
15288;DHT22;7745;48.708;9.026;2023-06-26T14:15:10;29.40;99.90
15288;DHT22;7745;48.708;9.026;2023-06-26T14:17:37;29.40;99.90
15288;DHT22;7745;48.708;9.026;2023-06-26T14:20:06;29.40;99.90
15288;DHT22;7745;48.708;9.026;2023-06-26T14:22:35;29.20;99.90
15288;DHT22;7745;48.708;9.026;2023-06-26T14:25:02;29.30;99.90
15288;DHT22;7745;48.708;9.026;2023-06-26T14:27:30;29.30;99.90
15288;DHT22;7745;48.708;9.026;2023-06-26T14:29:57;29.30;99.90
15288;DHT22;7745;48.708;9.026;2023-06-26T14:32:23;29.30;99.90
15288;DHT22;7745;48.708;9.026;2023-06-26T14:34:50;29.10;99.90
15288;DHT22;7745;48.708;9.026;2023-06-26T14:37:17;29.00;99.90
15288;DHT22;7745;48.708;9.026;2023-06-26T14:39:44;28.90;99.90
15288;DHT22;7745;48.708;9.026;2023-06-26T14:42:11;28.90;99.90
15288;DHT22;7745;48.708;9.026;2023-06-26T14:44:39;29.00;99.90
15288;DHT22;7745;48.708;9.026;2023-06-26T14:47:06;29.00;99.90
15288;DHT22;7745;48.708;9.026;2023-06-26T14:49:33;29.20;99.90
15288;DHT22;7745;48.708;9.026;2023-06-26T14:51:59;29.30;99.90
15288;DHT22;7745;48.708;9.026;2023-06-26T14:54:26;29.30;99.90
15288;DHT22;7745;48.708;9.026;2023-06-26T14:56:53;29.40;99.90
15288;DHT22;7745;48.708;9.026;2023-06-26T14:59:19;29.40;99.90
15288;DHT22;7745;48.708;9.026;2023-06-26T15:01:48;29.10;99.90
15288;DHT22;7745;48.708;9.026;2023-06-26T15:04:14;29.20;99.90
15288;DHT22;7745;48.708;9.026;2023-06-26T15:06:41;29.10;99.90
15288;DHT22;7745;48.708;9.026;2023-06-26T15:09:08;29.10;99.90
15288;DHT22;7745;48.708;9.026;2023-06-26T15:11:35;29.00;99.90
15288;DHT22;7745;48.708;9.026;2023-06-26T15:14:02;29.00;99.90
15288;DHT22;7745;48.708;9.026;2023-06-26T15:16:28;28.80;99.90
15288;DHT22;7745;48.708;9.026;2023-06-26T15:18:57;28.80;99.90
15288;DHT22;7745;48.708;9.026;2023-06-26T15:21:24;28.90;99.90
15288;DHT22;7745;48.708;9.026;2023-06-26T15:23:50;28.90;99.90
15288;DHT22;7745;48.708;9.026;2023-06-26T15:26:17;29.00;99.90
15288;DHT22;7745;48.708;9.026;2023-06-26T15:28:44;29.10;99.90
15288;DHT22;7745;48.708;9.026;2023-06-26T15:31:11;29.20;99.90
15288;DHT22;7745;48.708;9.026;2023-06-26T15:33:38;29.20;99.90
15288;DHT22;7745;48.708;9.026;2023-06-26T15:36:06;29.20;99.90
15288;DHT22;7745;48.708;9.026;2023-06-26T15:38:33;28.90;99.90
15288;DHT22;7745;48.708;9.026;2023-06-26T15:40:59;28.60;99.90
15288;DHT22;7745;48.708;9.026;2023-06-26T15:43:27;28.50;99.90
15288;DHT22;7745;48.708;9.026;2023-06-26T15:45:54;28.40;99.90
15288;DHT22;7745;48.708;9.026;2023-06-26T15:48:21;28.20;99.90
15288;DHT22;7745;48.708;9.026;2023-06-26T15:50:51;28.20;99.90
15288;DHT22;7745;48.708;9.026;2023-06-26T15:53:19;28.10;99.90